createdAt,value
2019-05-23T00:00:30.525Z,81.60
2019-05-23T00:05:51.102Z,81.77
2019-05-23T00:11:34.875Z,81.86
2019-05-23T00:16:55.734Z,82.02
2019-05-23T00:22:15.092Z,81.87
2019-05-23T00:27:35.374Z,82.00
2019-05-23T00:32:56.715Z,82.17
2019-05-23T00:38:16.979Z,82.16
2019-05-23T00:43:36.337Z,82.13
2019-05-23T00:48:56.335Z,82.45
2019-05-23T00:54:16.057Z,82.75
2019-05-23T00:59:35.072Z,82.88
2019-05-23T01:04:54.272Z,82.81
2019-05-23T01:10:15.489Z,82.88
2019-05-23T01:15:35.985Z,82.82
2019-05-23T01:21:02.388Z,82.72
2019-05-23T01:26:22.657Z,82.72
2019-05-23T01:31:43.228Z,82.70
2019-05-23T01:37:06.156Z,82.77
2019-05-23T01:42:26.373Z,83.06
2019-05-23T01:47:47.811Z,83.20
2019-05-23T01:53:08.560Z,83.29
2019-05-23T01:58:27.810Z,83.53
2019-05-23T02:03:47.326Z,83.64
2019-05-23T02:09:09.225Z,83.65
2019-05-23T02:14:28.565Z,83.70
2019-05-23T02:19:48.119Z,83.81
2019-05-23T02:25:10.160Z,83.88
2019-05-23T02:30:34.951Z,83.88
2019-05-23T02:35:51.768Z,84.05
2019-05-23T02:41:11.974Z,84.31
2019-05-23T02:46:34.938Z,84.39
2019-05-23T02:51:56.605Z,84.45
2019-05-23T02:57:19.328Z,84.43
2019-05-23T03:02:50.976Z,84.52
2019-05-23T03:08:10.311Z,84.58
2019-05-23T03:13:32.143Z,84.67
2019-05-23T03:18:55.316Z,84.90
2019-05-23T03:24:14.109Z,84.90
2019-05-23T03:29:34.524Z,84.74
2019-05-23T03:34:54.801Z,84.79
2019-05-23T03:40:13.670Z,84.95
2019-05-23T03:45:39.274Z,85.21
2019-05-23T03:50:55.647Z,85.28
2019-05-23T03:56:15.173Z,85.28
2019-05-23T04:01:46.965Z,85.33
2019-05-23T04:06:55.332Z,85.35
2019-05-23T04:12:13.929Z,85.29
2019-05-23T04:17:32.622Z,85.23
2019-05-23T04:22:51.254Z,85.23
2019-05-23T04:28:11.540Z,84.96
2019-05-23T04:33:30.773Z,82.09
2019-05-23T04:38:51.921Z,76.76
2019-05-23T04:44:12.202Z,68.29
2019-05-23T04:49:30.922Z,63.87
2019-05-23T04:54:50.622Z,62.93
2019-05-23T05:00:13.329Z,65.25
2019-05-23T05:05:32.034Z,61.53
2019-05-23T05:10:51.060Z,60.32
2019-05-23T05:16:09.805Z,58.72
2019-05-23T05:21:28.431Z,55.49
2019-05-23T05:26:47.166Z,56.12
2019-05-23T05:32:06.804Z,54.11
2019-05-23T05:37:25.444Z,54.39
2019-05-23T05:42:45.831Z,50.48
2019-05-23T05:48:04.903Z,49.37
2019-05-23T05:53:23.748Z,48.90
2019-05-23T05:58:42.717Z,47.10
2019-05-23T06:04:02.415Z,46.17
2019-05-23T06:09:22.928Z,44.04
2019-05-23T06:14:41.571Z,43.93
2019-05-23T06:20:00.827Z,44.71
2019-05-23T06:25:19.983Z,44.16
2019-05-23T06:30:39.428Z,44.40
2019-05-23T06:35:58.264Z,43.71
2019-05-23T06:41:18.478Z,45.85
2019-05-23T06:46:37.624Z,42.83
2019-05-23T06:51:56.191Z,43.56
2019-05-23T06:57:14.908Z,39.92
2019-05-23T07:02:33.526Z,40.17
2019-05-23T07:07:52.202Z,42.22
2019-05-23T07:13:10.756Z,39.30
2019-05-23T07:18:29.449Z,37.05
2019-05-23T07:23:48.162Z,39.49
2019-05-23T07:29:10.468Z,37.61
2019-05-23T07:34:29.621Z,34.14
2019-05-23T07:39:48.781Z,39.82
2019-05-23T07:45:09.319Z,39.81
2019-05-23T07:50:28.045Z,37.59
2019-05-23T07:55:48.919Z,37.78
2019-05-23T08:01:09.200Z,38.42
2019-05-23T08:06:28.023Z,37.35
2019-05-23T08:11:46.754Z,37.00
2019-05-23T08:17:07.094Z,38.57
2019-05-23T08:22:26.111Z,36.50
2019-05-23T08:27:44.775Z,33.64
2019-05-23T08:33:05.196Z,33.50
2019-05-23T08:38:24.530Z,36.21
2019-05-23T08:43:43.231Z,38.95
2019-05-23T08:49:01.867Z,36.15
2019-05-23T08:54:20.445Z,37.02
2019-05-23T08:59:39.946Z,36.84
2019-05-23T09:05:05.234Z,32.78
2019-05-23T09:10:20.258Z,35.65
2019-05-23T09:15:38.914Z,36.99
2019-05-23T09:20:58.044Z,37.77
2019-05-23T09:26:16.946Z,38.36
2019-05-23T09:31:35.945Z,35.30
2019-05-23T09:36:54.568Z,37.52
2019-05-23T09:42:13.508Z,34.26
2019-05-23T09:47:32.137Z,36.18
2019-05-23T09:52:50.867Z,34.35
2019-05-23T09:58:10.036Z,35.34
2019-05-23T10:03:28.654Z,36.40
2019-05-23T10:08:47.418Z,36.46
2019-05-23T10:14:07.790Z,35.98
2019-05-23T10:19:26.403Z,35.21
2019-05-23T10:24:45.175Z,35.71
2019-05-23T10:30:07.543Z,36.36
2019-05-23T10:35:26.748Z,34.80
2019-05-23T10:40:45.737Z,36.74
2019-05-23T10:46:04.366Z,38.01
2019-05-23T10:51:23.010Z,35.52
2019-05-23T10:56:41.627Z,36.92
2019-05-23T11:02:00.262Z,37.00
2019-05-23T11:07:19.054Z,34.98
2019-05-23T11:12:37.949Z,38.61
2019-05-23T11:17:56.592Z,34.27
2019-05-23T11:23:16.874Z,37.22
2019-05-23T11:28:37.302Z,37.50
2019-05-23T11:33:56.018Z,35.05
2019-05-23T11:39:15.536Z,33.42
2019-05-23T11:44:34.277Z,36.49
2019-05-23T11:49:52.916Z,35.59
2019-05-23T11:55:12.521Z,35.50
2019-05-23T12:00:53.781Z,35.16
2019-05-23T12:06:12.739Z,37.68
2019-05-23T12:11:35.830Z,35.46
2019-05-23T12:16:52.113Z,33.10
2019-05-23T12:22:10.859Z,33.90
2019-05-23T12:27:29.892Z,34.41
2019-05-23T12:32:48.503Z,34.99
2019-05-23T12:38:07.721Z,35.98
2019-05-23T12:43:26.459Z,34.87
2019-05-23T12:48:46.738Z,33.87
2019-05-23T12:54:05.605Z,34.60
2019-05-23T12:59:26.302Z,33.98
2019-05-23T13:04:45.536Z,35.93
2019-05-23T13:10:05.695Z,35.62
2019-05-23T13:15:25.229Z,36.31
2019-05-23T13:20:44.167Z,36.68
2019-05-23T13:26:03.191Z,36.47
2019-05-23T13:31:21.665Z,35.28
2019-05-23T13:36:40.515Z,34.81
2019-05-23T13:41:59.194Z,36.36
2019-05-23T13:47:18.206Z,36.14
2019-05-23T13:52:37.022Z,35.71
2019-05-23T13:57:55.739Z,35.43
2019-05-23T14:03:14.395Z,35.43
2019-05-23T14:08:33.064Z,33.00
2019-05-23T14:13:59.629Z,35.62
2019-05-23T14:19:12.366Z,37.40
2019-05-23T14:24:31.083Z,36.13
2019-05-23T14:29:49.805Z,34.96
2019-05-23T14:35:09.858Z,33.64
2019-05-23T14:40:29.461Z,31.93
2019-05-23T14:45:57.126Z,34.82
2019-05-23T14:51:33.921Z,33.36
2019-05-23T14:56:53.101Z,31.94
2019-05-23T15:02:13.613Z,31.30
2019-05-23T15:07:33.882Z,30.43
2019-05-23T15:12:52.545Z,30.66
2019-05-23T15:18:11.109Z,30.72
2019-05-23T15:23:29.943Z,31.51
2019-05-23T15:28:48.539Z,32.60
2019-05-23T15:34:07.389Z,31.26
2019-05-23T15:39:27.471Z,31.96
2019-05-23T15:44:46.134Z,29.50
2019-05-23T15:50:11.286Z,31.65
2019-05-23T15:55:54.344Z,33.19
2019-05-23T16:01:15.180Z,33.32
2019-05-23T16:06:34.770Z,34.19
2019-05-23T16:11:53.873Z,33.01
2019-05-23T16:17:12.934Z,32.50
2019-05-23T16:22:31.955Z,31.91
2019-05-23T16:27:51.468Z,32.31
2019-05-23T16:33:10.170Z,32.18
2019-05-23T16:38:30.674Z,33.21
2019-05-23T16:43:49.363Z,33.15
2019-05-23T16:49:08.041Z,33.84
2019-05-23T16:54:28.253Z,34.48
2019-05-23T16:59:51.546Z,33.94
2019-05-23T17:05:16.276Z,33.04
2019-05-23T17:10:48.529Z,32.92
2019-05-23T17:16:21.033Z,34.66
2019-05-23T17:21:44.360Z,34.66
2019-05-23T17:27:04.860Z,33.21
2019-05-23T17:32:28.073Z,32.39
2019-05-23T17:37:46.907Z,34.66
2019-05-23T17:43:05.794Z,32.26
2019-05-23T17:48:25.400Z,33.31
2019-05-23T17:53:44.608Z,33.78
2019-05-23T17:59:04.040Z,32.82
2019-05-23T18:04:23.761Z,32.03
2019-05-23T18:09:42.563Z,31.66
2019-05-23T18:15:04.852Z,32.33
2019-05-23T18:20:24.594Z,31.77
2019-05-23T18:25:48.004Z,31.29
2019-05-23T18:31:15.038Z,32.04
2019-05-23T18:36:34.030Z,31.97
2019-05-23T18:41:53.099Z,31.43
2019-05-23T18:47:16.455Z,32.23
2019-05-23T18:52:35.267Z,32.23
2019-05-23T18:57:54.070Z,33.32
2019-05-23T19:03:13.482Z,33.44
2019-05-23T19:08:32.581Z,33.65
2019-05-23T19:13:51.321Z,33.69
2019-05-23T19:19:10.250Z,34.65
2019-05-23T19:24:28.902Z,34.55
2019-05-23T19:29:47.800Z,34.67
2019-05-23T19:35:08.080Z,34.41
2019-05-23T19:40:26.866Z,35.12
2019-05-23T19:45:45.746Z,35.73
2019-05-23T19:51:06.077Z,36.97
2019-05-23T19:56:24.839Z,37.31
2019-05-23T20:01:48.183Z,36.31
2019-05-23T20:07:08.523Z,35.87
2019-05-23T20:12:27.318Z,36.46
2019-05-23T20:17:46.138Z,36.97
2019-05-23T20:23:04.797Z,36.99
2019-05-23T20:28:24.721Z,38.43
2019-05-23T20:33:43.404Z,41.09
2019-05-23T20:39:02.033Z,40.77
2019-05-23T20:44:20.686Z,42.28
2019-05-23T20:49:39.598Z,43.08
2019-05-23T20:54:58.254Z,43.69
2019-05-23T21:00:34.029Z,45.05
2019-05-23T21:05:52.981Z,45.77
2019-05-23T21:11:11.965Z,45.95
2019-05-23T21:16:30.612Z,46.80
2019-05-23T21:21:49.290Z,46.78
2019-05-23T21:27:07.927Z,47.23
2019-05-23T21:32:26.685Z,48.09
2019-05-23T21:37:45.324Z,48.64
2019-05-23T21:43:04.375Z,49.56
2019-05-23T21:48:23.071Z,49.56
2019-05-23T21:53:41.711Z,50.38
2019-05-23T21:59:00.478Z,50.12
2019-05-23T22:04:36.139Z,51.52
2019-05-23T22:09:54.718Z,52.14
2019-05-23T22:15:16.246Z,55.83
2019-05-23T22:20:35.153Z,55.00
2019-05-23T22:25:53.865Z,55.44
2019-05-23T22:31:12.547Z,55.83
2019-05-23T22:36:31.299Z,56.23
2019-05-23T22:41:49.964Z,56.74
2019-05-23T22:47:08.658Z,57.47
2019-05-23T22:52:27.301Z,58.01
2019-05-23T22:57:45.811Z,58.85
2019-05-23T23:03:04.718Z,58.84
2019-05-23T23:08:23.812Z,60.87
2019-05-23T23:13:42.507Z,60.68
2019-05-23T23:19:01.383Z,61.14
2019-05-23T23:24:20.194Z,61.13
2019-05-23T23:29:38.890Z,60.64
2019-05-23T23:34:57.505Z,61.28
2019-05-23T23:40:16.394Z,61.32
2019-05-23T23:45:53.028Z,62.50
2019-05-23T23:51:29.852Z,63.13
2019-05-23T23:57:06.066Z,63.07
